Terminal Aerodrome Forecast
Issued by NWS

Home | Current Version | Previous Version | Text Only | Print | Product List | Glossary On
Versions: 1 2 3 4 5 6 7 8 9 10 11 12 13 14 15 16 17 18 19 20 21 22 23 24
000
FTUS41 KBUF 260500
TAFIAG
TAF
KIAG 260520Z 2606/2706 24014KT P6SM SCT025 OVC035
      TEMPO 2606/2609 BKN025
     FM261300 23012KT P6SM SCT035 BKN100
     FM261700 22014G20KT P6SM SCT050 BKN120
     FM262100 23014KT P6SM SCT035 BKN250
     FM270100 23010KT P6SM BKN250=

USA.gov is the U.S. government's official web portal to all federal, state and local government web resources and services.